sensor_id;sensor_type;location;lat;lon;timestamp;pressure;altitude;pressure_sealevel;temperature;humidity
85082;BME280;75424;50.762;7.178;2024-03-06T00:02:04;101048.31;;;6.20;100.00
85082;BME280;75424;50.762;7.178;2024-03-06T00:04:29;101060.59;;;6.21;100.00
85082;BME280;75424;50.762;7.178;2024-03-06T00:06:55;101057.91;;;6.24;100.00
85082;BME280;75424;50.762;7.178;2024-03-06T00:09:21;101053.44;;;6.28;100.00
85082;BME280;75424;50.762;7.178;2024-03-06T00:11:49;101058.75;;;6.26;99.90
85082;BME280;75424;50.762;7.178;2024-03-06T00:14:16;101056.94;;;6.30;99.84
85082;BME280;75424;50.762;7.178;2024-03-06T00:16:42;101068.38;;;6.27;100.00
85082;BME280;75424;50.762;7.178;2024-03-06T00:19:08;101060.53;;;6.26;100.00
85082;BME280;75424;50.762;7.178;2024-03-06T00:21:34;101067.59;;;6.24;100.00
85082;BME280;75424;50.762;7.178;2024-03-06T00:24:01;101071.16;;;6.21;100.00
85082;BME280;75424;50.762;7.178;2024-03-06T00:26:27;101074.72;;;6.20;100.00
85082;BME280;75424;50.762;7.178;2024-03-06T00:28:52;101075.59;;;6.19;100.00
85082;BME280;75424;50.762;7.178;2024-03-06T00:31:17;101080.84;;;6.19;100.00
85082;BME280;75424;50.762;7.178;2024-03-06T00:33:43;101081.78;;;6.17;100.00
85082;BME280;75424;50.762;7.178;2024-03-06T00:36:08;101074.75;;;6.17;100.00
85082;BME280;75424;50.762;7.178;2024-03-06T00:38:34;101083.53;;;6.16;100.00
85082;BME280;75424;50.762;7.178;2024-03-06T00:40:59;101087.19;;;6.11;100.00
85082;BME280;75424;50.762;7.178;2024-03-06T00:43:25;101086.34;;;6.09;99.97
85082;BME280;75424;50.762;7.178;2024-03-06T00:45:50;101091.66;;;6.07;100.00
85082;BME280;75424;50.762;7.178;2024-03-06T00:48:16;101084.47;;;6.14;100.00
85082;BME280;75424;50.762;7.178;2024-03-06T00:50:44;101095.88;;;6.17;100.00
85082;BME280;75424;50.762;7.178;2024-03-06T00:53:10;101099.47;;;6.13;99.91
85082;BME280;75424;50.762;7.178;2024-03-06T00:55:35;101098.59;;;6.11;100.00
85082;BME280;75424;50.762;7.178;2024-03-06T00:58:00;101100.50;;;6.05;100.00
85082;BME280;75424;50.762;7.178;2024-03-06T01:00:26;101108.44;;;6.03;100.00
85082;BME280;75424;50.762;7.178;2024-03-06T01:02:52;101105.88;;;5.99;100.00
85082;BME280;75424;50.762;7.178;2024-03-06T01:05:17;101114.66;;;5.99;100.00
85082;BME280;75424;50.762;7.178;2024-03-06T01:07:42;101114.69;;;5.98;100.00
85082;BME280;75424;50.762;7.178;2024-03-06T01:10:08;101119.06;;;5.99;100.00
85082;BME280;75424;50.762;7.178;2024-03-06T01:12:34;101123.47;;;5.98;99.97
85082;BME280;75424;50.762;7.178;2024-03-06T01:15:00;101117.41;;;5.92;100.00
85082;BME280;75424;50.762;7.178;2024-03-06T01:17:25;101121.84;;;5.90;100.00
85082;BME280;75424;50.762;7.178;2024-03-06T01:19:51;101124.56;;;5.85;99.91
85082;BME280;75424;50.762;7.178;2024-03-06T01:22:17;101123.78;;;5.79;100.00
85082;BME280;75424;50.762;7.178;2024-03-06T01:24:43;101129.22;;;5.68;99.87
85082;BME280;75424;50.762;7.178;2024-03-06T01:27:08;101131.09;;;5.62;100.00
85082;BME280;75424;50.762;7.178;2024-03-06T01:29:37;101139.97;;;5.56;100.00
85082;BME280;75424;50.762;7.178;2024-03-06T01:32:02;101134.00;;;5.44;99.75
85082;BME280;75424;50.762;7.178;2024-03-06T01:34:27;101144.59;;;5.39;100.00
85082;BME280;75424;50.762;7.178;2024-03-06T01:36:53;101136.00;;;5.27;99.81
85082;BME280;75424;50.762;7.178;2024-03-06T01:39:19;101142.34;;;5.14;99.54
85082;BME280;75424;50.762;7.178;2024-03-06T01:41:49;101140.69;;;5.07;99.50
85082;BME280;75424;50.762;7.178;2024-03-06T01:44:15;101149.56;;;4.98;99.38
85082;BME280;75424;50.762;7.178;2024-03-06T01:46:41;101150.50;;;4.94;99.65
85082;BME280;75424;50.762;7.178;2024-03-06T01:49:07;101144.34;;;4.95;99.81
85082;BME280;75424;50.762;7.178;2024-03-06T01:51:33;101140.88;;;4.93;99.61
85082;BME280;75424;50.762;7.178;2024-03-06T01:54:00;101139.06;;;4.97;100.00
85082;BME280;75424;50.762;7.178;2024-03-06T01:56:26;101153.97;;;4.98;99.29
85082;BME280;75424;50.762;7.178;2024-03-06T01:58:53;101154.00;;;4.96;100.00
85082;BME280;75424;50.762;7.178;2024-03-06T02:01:19;101154.81;;;5.00;100.00
85082;BME280;75424;50.762;7.178;2024-03-06T02:03:46;101152.19;;;5.00;100.00
85082;BME280;75424;50.762;7.178;2024-03-06T02:06:12;101161.78;;;5.04;100.00
85082;BME280;75424;50.762;7.178;2024-03-06T02:08:39;101153.00;;;5.03;100.00
85082;BME280;75424;50.762;7.178;2024-03-06T02:11:04;101157.38;;;5.06;100.00
85082;BME280;75424;50.762;7.178;2024-03-06T02:13:32;101153.72;;;5.14;100.00
85082;BME280;75424;50.762;7.178;2024-03-06T02:15:58;101157.16;;;5.22;100.00
85082;BME280;75424;50.762;7.178;2024-03-06T02:18:23;101157.97;;;5.27;100.00
85082;BME280;75424;50.762;7.178;2024-03-06T02:20:49;101156.13;;;5.31;100.00
85082;BME280;75424;50.762;7.178;2024-03-06T02:23:16;101151.72;;;5.34;100.00
85082;BME280;75424;50.762;7.178;2024-03-06T02:25:43;101149.09;;;5.34;100.00
85082;BME280;75424;50.762;7.178;2024-03-06T02:28:08;101151.63;;;5.39;100.00
85082;BME280;75424;50.762;7.178;2024-03-06T02:30:34;101160.44;;;5.38;100.00
85082;BME280;75424;50.762;7.178;2024-03-06T02:33:02;101151.59;;;5.40;100.00
85082;BME280;75424;50.762;7.178;2024-03-06T02:35:29;101149.84;;;5.41;100.00
85082;BME280;75424;50.762;7.178;2024-03-06T02:37:54;101147.22;;;5.41;100.00
85082;BME280;75424;50.762;7.178;2024-03-06T02:42:58;101144.63;;;5.38;100.00
85082;BME280;75424;50.762;7.178;2024-03-06T02:45:31;101143.69;;;5.40;100.00
85082;BME280;75424;50.762;7.178;2024-03-06T02:48:02;101154.34;;;5.36;100.00
85082;BME280;75424;50.762;7.178;2024-03-06T02:50:33;101147.38;;;5.32;100.00
85082;BME280;75424;50.762;7.178;2024-03-06T02:52:59;101155.41;;;5.21;100.00
85082;BME280;75424;50.762;7.178;2024-03-06T02:55:27;101147.72;;;5.05;100.00
85082;BME280;75424;50.762;7.178;2024-03-06T02:58:01;101155.78;;;4.94;100.00
85082;BME280;75424;50.762;7.178;2024-03-06T03:00:34;101150.69;;;4.81;99.93
85082;BME280;75424;50.762;7.178;2024-03-06T03:03:08;101150.81;;;4.69;99.64
85082;BME280;75424;50.762;7.178;2024-03-06T03:05:39;101156.13;;;4.64;100.00
85082;BME280;75424;50.762;7.178;2024-03-06T03:08:06;101159.63;;;4.66;100.00
85082;BME280;75424;50.762;7.178;2024-03-06T03:10:39;101156.91;;;4.72;99.90
85082;BME280;75424;50.762;7.178;2024-03-06T03:13:07;101154.25;;;4.75;100.00
85082;BME280;75424;50.762;7.178;2024-03-06T03:15:35;101158.56;;;4.82;100.00
85082;BME280;75424;50.762;7.178;2024-03-06T03:18:03;101161.09;;;4.90;100.00
85082;BME280;75424;50.762;7.178;2024-03-06T03:20:28;101149.78;;;4.82;99.99
85082;BME280;75424;50.762;7.178;2024-03-06T03:22:54;101153.47;;;4.69;99.76
85082;BME280;75424;50.762;7.178;2024-03-06T03:25:19;101156.13;;;4.64;99.85
85082;BME280;75424;50.762;7.178;2024-03-06T03:27:47;101166.84;;;4.49;99.06
85082;BME280;75424;50.762;7.178;2024-03-06T03:30:12;101165.31;;;4.27;98.95
85082;BME280;75424;50.762;7.178;2024-03-06T03:32:38;101164.59;;;4.10;99.54
85082;BME280;75424;50.762;7.178;2024-03-06T03:35:07;101178.72;;;3.95;99.39
85082;BME280;75424;50.762;7.178;2024-03-06T03:37:33;101178.00;;;3.78;99.05
85082;BME280;75424;50.762;7.178;2024-03-06T03:39:59;101185.00;;;3.79;99.83
85082;BME280;75424;50.762;7.178;2024-03-06T03:42:25;101183.25;;;3.83;99.73
85082;BME280;75424;50.762;7.178;2024-03-06T03:44:51;101192.88;;;3.79;100.00
85082;BME280;75424;50.762;7.178;2024-03-06T03:47:16;101195.59;;;3.73;99.97
85082;BME280;75424;50.762;7.178;2024-03-06T03:49:41;101194.78;;;3.62;98.47
85082;BME280;75424;50.762;7.178;2024-03-06T03:52:08;101202.72;;;3.50;99.72
85082;BME280;75424;50.762;7.178;2024-03-06T03:54:33;101206.31;;;3.39;98.83
85082;BME280;75424;50.762;7.178;2024-03-06T03:56:59;101209.84;;;3.27;99.33
85082;BME280;75424;50.762;7.178;2024-03-06T03:59:25;101213.44;;;3.19;99.34
85082;BME280;75424;50.762;7.178;2024-03-06T04:01:51;101213.44;;;3.10;99.09
85082;BME280;75424;50.762;7.178;2024-03-06T04:04:16;101211.72;;;3.07;99.88
85082;BME280;75424;50.762;7.178;2024-03-06T04:06:41;101211.72;;;3.03;99.15
85082;BME280;75424;50.762;7.178;2024-03-06T04:09:07;101217.84;;;3.09;100.00
85082;BME280;75424;50.762;7.178;2024-03-06T04:11:36;101222.16;;;3.21;100.00
85082;BME280;75424;50.762;7.178;2024-03-06T04:14:03;101225.72;;;3.09;99.66
85082;BME280;75424;50.762;7.178;2024-03-06T04:16:28;101230.91;;;3.23;100.00
85082;BME280;75424;50.762;7.178;2024-03-06T04:18:54;101229.06;;;3.38;100.00
85082;BME280;75424;50.762;7.178;2024-03-06T04:21:19;101231.59;;;3.52;100.00
85082;BME280;75424;50.762;7.178;2024-03-06T04:23:45;101232.41;;;3.67;100.00
85082;BME280;75424;50.762;7.178;2024-03-06T04:26:10;101235.84;;;3.78;100.00
85082;BME280;75424;50.762;7.178;2024-03-06T04:28:35;101219.16;;;3.82;100.00
85082;BME280;75424;50.762;7.178;2024-03-06T04:31:01;101232.28;;;3.87;100.00
85082;BME280;75424;50.762;7.178;2024-03-06T04:33:26;101232.28;;;3.84;100.00
85082;BME280;75424;50.762;7.178;2024-03-06T04:35:52;101245.41;;;3.88;100.00
85082;BME280;75424;50.762;7.178;2024-03-06T04:38:17;101246.22;;;3.97;100.00
85082;BME280;75424;50.762;7.178;2024-03-06T04:40:42;101240.06;;;4.02;100.00
85082;BME280;75424;50.762;7.178;2024-03-06T04:43:08;101245.31;;;4.01;100.00
85082;BME280;75424;50.762;7.178;2024-03-06T04:45:33;101247.06;;;4.00;100.00
85082;BME280;75424;50.762;7.178;2024-03-06T04:47:58;101248.78;;;4.01;100.00
85082;BME280;75424;50.762;7.178;2024-03-06T04:50:24;101248.78;;;4.04;100.00
85082;BME280;75424;50.762;7.178;2024-03-06T04:52:49;101251.41;;;4.06;100.00
85082;BME280;75424;50.762;7.178;2024-03-06T04:55:15;101261.03;;;4.08;100.00
85082;BME280;75424;50.762;7.178;2024-03-06T04:57:45;101266.28;;;4.10;100.00
85082;BME280;75424;50.762;7.178;2024-03-06T05:00:11;101265.38;;;4.12;100.00
85082;BME280;75424;50.762;7.178;2024-03-06T05:02:37;101262.75;;;4.11;100.00
85082;BME280;75424;50.762;7.178;2024-03-06T05:05:03;101267.16;;;4.07;100.00
85082;BME280;75424;50.762;7.178;2024-03-06T05:07:30;101270.69;;;4.08;100.00
85082;BME280;75424;50.762;7.178;2024-03-06T05:09:56;101269.81;;;4.07;100.00
85082;BME280;75424;50.762;7.178;2024-03-06T05:12:25;101282.06;;;4.05;100.00
85082;BME280;75424;50.762;7.178;2024-03-06T05:14:51;101275.97;;;4.03;100.00
85082;BME280;75424;50.762;7.178;2024-03-06T05:17:16;101279.44;;;4.05;100.00
85082;BME280;75424;50.762;7.178;2024-03-06T05:19:43;101277.69;;;4.07;100.00
85082;BME280;75424;50.762;7.178;2024-03-06T05:22:08;101279.50;;;4.02;100.00
85082;BME280;75424;50.762;7.178;2024-03-06T05:24:33;101282.16;;;3.90;100.00
85082;BME280;75424;50.762;7.178;2024-03-06T05:26:58;101285.78;;;3.78;100.00
85082;BME280;75424;50.762;7.178;2024-03-06T05:29:24;101285.84;;;3.60;99.99
85082;BME280;75424;50.762;7.178;2024-03-06T05:31:49;101288.56;;;3.44;99.93
85082;BME280;75424;50.762;7.178;2024-03-06T05:34:14;101287.78;;;3.30;99.56
85082;BME280;75424;50.762;7.178;2024-03-06T05:36:40;101297.44;;;3.14;99.52
85082;BME280;75424;50.762;7.178;2024-03-06T05:39:05;101296.59;;;3.02;99.16
85082;BME280;75424;50.762;7.178;2024-03-06T05:41:35;101302.75;;;2.95;99.14
85082;BME280;75424;50.762;7.178;2024-03-06T05:44:00;101303.66;;;2.85;99.01
85082;BME280;75424;50.762;7.178;2024-03-06T05:46:25;101309.78;;;2.79;100.00
85082;BME280;75424;50.762;7.178;2024-03-06T05:48:51;101316.78;;;2.79;99.71
85082;BME280;75424;50.762;7.178;2024-03-06T05:51:17;101318.53;;;2.72;99.57
85082;BME280;75424;50.762;7.178;2024-03-06T05:53:42;101316.78;;;2.61;99.22
85082;BME280;75424;50.762;7.178;2024-03-06T05:56:09;101326.41;;;2.50;99.89
85082;BME280;75424;50.762;7.178;2024-03-06T05:58:34;101331.66;;;2.42;99.38
85082;BME280;75424;50.762;7.178;2024-03-06T06:01:00;101338.66;;;2.45;100.00
85082;BME280;75424;50.762;7.178;2024-03-06T06:03:26;101331.66;;;2.35;99.73
85082;BME280;75424;50.762;7.178;2024-03-06T06:05:52;101336.03;;;2.27;99.20
85082;BME280;75424;50.762;7.178;2024-03-06T06:08:17;101343.00;;;2.22;99.98
85082;BME280;75424;50.762;7.178;2024-03-06T06:10:43;101341.28;;;2.19;98.85
85082;BME280;75424;50.762;7.178;2024-03-06T06:13:08;101348.22;;;2.14;99.79
85082;BME280;75424;50.762;7.178;2024-03-06T06:15:34;101363.09;;;2.11;99.46
85082;BME280;75424;50.762;7.178;2024-03-06T06:17:59;101362.22;;;2.18;99.20
85082;BME280;75424;50.762;7.178;2024-03-06T06:20:24;101356.09;;;2.16;100.00
85082;BME280;75424;50.762;7.178;2024-03-06T06:22:50;101356.97;;;2.15;99.18
85082;BME280;75424;50.762;7.178;2024-03-06T06:25:16;101363.09;;;2.14;99.69
85082;BME280;75424;50.762;7.178;2024-03-06T06:27:41;101369.19;;;2.16;99.26
85082;BME280;75424;50.762;7.178;2024-03-06T06:30:07;101376.22;;;2.24;100.00
85082;BME280;75424;50.762;7.178;2024-03-06T06:32:36;101372.72;;;2.21;99.61
85082;BME280;75424;50.762;7.178;2024-03-06T06:35:02;101379.69;;;2.13;99.22
85082;BME280;75424;50.762;7.178;2024-03-06T06:37:27;101381.44;;;2.09;99.45
85082;BME280;75424;50.762;7.178;2024-03-06T06:39:53;101384.03;;;2.06;99.11
85082;BME280;75424;50.762;7.178;2024-03-06T06:42:18;101392.78;;;2.07;99.46
85082;BME280;75424;50.762;7.178;2024-03-06T06:44:44;101391.94;;;2.12;98.98
85082;BME280;75424;50.762;7.178;2024-03-06T06:47:09;101398.06;;;2.29;99.49
85082;BME280;75424;50.762;7.178;2024-03-06T06:49:34;101404.22;;;2.33;98.98
85082;BME280;75424;50.762;7.178;2024-03-06T06:52:00;101398.09;;;2.26;99.26
85082;BME280;75424;50.762;7.178;2024-03-06T06:54:25;101405.91;;;2.20;99.28
85082;BME280;75424;50.762;7.178;2024-03-06T06:56:50;101411.19;;;2.23;99.68
85082;BME280;75424;50.762;7.178;2024-03-06T06:59:16;101409.41;;;2.24;98.86
85082;BME280;75424;50.762;7.178;2024-03-06T07:01:41;101416.44;;;2.34;99.49
85082;BME280;75424;50.762;7.178;2024-03-06T07:04:06;101419.94;;;2.42;100.00
85082;BME280;75424;50.762;7.178;2024-03-06T07:06:32;101426.94;;;2.49;99.05
85082;BME280;75424;50.762;7.178;2024-03-06T07:08:57;101423.47;;;2.57;99.81
85082;BME280;75424;50.762;7.178;2024-03-06T07:11:23;101421.72;;;2.64;99.13
85082;BME280;75424;50.762;7.178;2024-03-06T07:13:49;101418.22;;;2.80;99.90
85082;BME280;75424;50.762;7.178;2024-03-06T07:16:14;101427.00;;;2.97;100.00
85082;BME280;75424;50.762;7.178;2024-03-06T07:18:40;101429.59;;;3.15;100.00
85082;BME280;75424;50.762;7.178;2024-03-06T07:21:05;101442.69;;;3.33;100.00
85082;BME280;75424;50.762;7.178;2024-03-06T07:23:30;101432.16;;;3.48;99.83
85082;BME280;75424;50.762;7.178;2024-03-06T07:25:56;101438.25;;;3.56;99.67
85082;BME280;75424;50.762;7.178;2024-03-06T07:28:23;101441.75;;;3.52;99.25
85082;BME280;75424;50.762;7.178;2024-03-06T07:30:50;101444.44;;;3.40;99.34
85082;BME280;75424;50.762;7.178;2024-03-06T07:33:15;101445.34;;;3.25;99.26
85082;BME280;75424;50.762;7.178;2024-03-06T07:35:41;101448.84;;;3.14;98.77
85082;BME280;75424;50.762;7.178;2024-03-06T07:38:06;101452.34;;;3.10;98.66
85082;BME280;75424;50.762;7.178;2024-03-06T07:40:31;101449.72;;;3.16;99.33
85082;BME280;75424;50.762;7.178;2024-03-06T07:42:59;101462.84;;;3.31;99.55
85082;BME280;75424;50.762;7.178;2024-03-06T07:45:25;101467.19;;;3.47;100.00
85082;BME280;75424;50.762;7.178;2024-03-06T07:47:51;101460.13;;;3.70;100.00
85082;BME280;75424;50.762;7.178;2024-03-06T07:50:17;101459.28;;;3.69;99.92
85082;BME280;75424;50.762;7.178;2024-03-06T07:52:45;101470.66;;;3.62;99.64
85082;BME280;75424;50.762;7.178;2024-03-06T07:55:10;101465.41;;;3.64;99.20
85082;BME280;75424;50.762;7.178;2024-03-06T07:57:35;101467.16;;;3.69;99.54
85082;BME280;75424;50.762;7.178;2024-03-06T08:00:01;101470.63;;;3.73;98.69
85082;BME280;75424;50.762;7.178;2024-03-06T08:02:33;101471.47;;;3.82;99.19
85082;BME280;75424;50.762;7.178;2024-03-06T08:05:00;101473.16;;;4.00;99.62
85082;BME280;75424;50.762;7.178;2024-03-06T08:07:26;101469.59;;;4.15;98.97
85082;BME280;75424;50.762;7.178;2024-03-06T08:09:51;101473.03;;;4.26;98.82
85082;BME280;75424;50.762;7.178;2024-03-06T08:12:16;101473.88;;;4.35;98.48
85082;BME280;75424;50.762;7.178;2024-03-06T08:14:42;101479.09;;;4.43;97.90
85082;BME280;75424;50.762;7.178;2024-03-06T08:17:07;101484.34;;;4.47;97.94
85082;BME280;75424;50.762;7.178;2024-03-06T08:19:32;101479.09;;;4.49;97.67
85082;BME280;75424;50.762;7.178;2024-03-06T08:21:58;101482.56;;;4.54;98.15
85082;BME280;75424;50.762;7.178;2024-03-06T08:24:23;101481.66;;;4.55;98.19
85082;BME280;75424;50.762;7.178;2024-03-06T08:26:49;101491.31;;;4.54;98.40
85082;BME280;75424;50.762;7.178;2024-03-06T08:29:14;101485.19;;;4.55;98.30
85082;BME280;75424;50.762;7.178;2024-03-06T08:31:40;101485.19;;;4.55;98.20
85082;BME280;75424;50.762;7.178;2024-03-06T08:34:05;101491.28;;;4.60;97.94
85082;BME280;75424;50.762;7.178;2024-03-06T08:36:31;101488.63;;;4.66;97.87
85082;BME280;75424;50.762;7.178;2024-03-06T08:38:56;101494.72;;;4.76;98.69
85082;BME280;75424;50.762;7.178;2024-03-06T08:41:22;101499.06;;;4.80;97.94
85082;BME280;75424;50.762;7.178;2024-03-06T08:43:47;101496.44;;;4.78;98.11
85082;BME280;75424;50.762;7.178;2024-03-06T08:46:13;101506.97;;;4.81;98.48
85082;BME280;75424;50.762;7.178;2024-03-06T08:48:38;101507.78;;;4.86;98.11
85082;BME280;75424;50.762;7.178;2024-03-06T08:51:04;101513.06;;;4.88;98.80
85082;BME280;75424;50.762;7.178;2024-03-06T08:53:35;101515.63;;;4.95;98.75
85082;BME280;75424;50.762;7.178;2024-03-06T08:56:01;101509.44;;;4.99;98.69
85082;BME280;75424;50.762;7.178;2024-03-06T08:58:26;101503.25;;;5.06;98.02
85082;BME280;75424;50.762;7.178;2024-03-06T09:00:51;101505.84;;;5.14;97.82
85082;BME280;75424;50.762;7.178;2024-03-06T09:03:17;101514.53;;;5.25;97.93
85082;BME280;75424;50.762;7.178;2024-03-06T09:05:43;101509.19;;;5.34;97.71
85082;BME280;75424;50.762;7.178;2024-03-06T09:08:08;101506.53;;;5.37;97.77
85082;BME280;75424;50.762;7.178;2024-03-06T09:10:34;101504.69;;;5.46;98.14
85082;BME280;75424;50.762;7.178;2024-03-06T09:13:00;101510.72;;;5.57;97.54
85082;BME280;75424;50.762;7.178;2024-03-06T09:15:25;101508.94;;;5.59;97.62
85082;BME280;75424;50.762;7.178;2024-03-06T09:17:51;101515.91;;;5.63;97.15
85082;BME280;75424;50.762;7.178;2024-03-06T09:20:16;101514.06;;;5.74;97.20
85082;BME280;75424;50.762;7.178;2024-03-06T09:22:42;101518.47;;;5.75;96.34
85082;BME280;75424;50.762;7.178;2024-03-06T09:25:07;101523.66;;;5.80;96.34
85082;BME280;75424;50.762;7.178;2024-03-06T09:27:33;101514.00;;;5.86;96.70
85082;BME280;75424;50.762;7.178;2024-03-06T09:30:00;101507.69;;;5.96;94.57
85082;BME280;75424;50.762;7.178;2024-03-06T09:32:25;101514.75;;;5.96;95.13
85082;BME280;75424;50.762;7.178;2024-03-06T09:34:54;101519.13;;;6.00;96.02
85082;BME280;75424;50.762;7.178;2024-03-06T09:37:19;101518.06;;;6.14;95.33
85082;BME280;75424;50.762;7.178;2024-03-06T09:39:45;101525.06;;;6.15;94.42
85082;BME280;75424;50.762;7.178;2024-03-06T09:42:17;101523.31;;;6.17;95.95
85082;BME280;75424;50.762;7.178;2024-03-06T09:44:43;101517.91;;;6.25;94.97
85082;BME280;75424;50.762;7.178;2024-03-06T09:47:12;101527.50;;;6.32;94.98
85082;BME280;75424;50.762;7.178;2024-03-06T09:49:40;101531.66;;;6.52;93.08
85082;BME280;75424;50.762;7.178;2024-03-06T09:52:05;101538.53;;;6.65;94.03
85082;BME280;75424;50.762;7.178;2024-03-06T09:54:31;101542.78;;;6.75;94.38
85082;BME280;75424;50.762;7.178;2024-03-06T09:56:56;101532.97;;;6.83;94.48
85082;BME280;75424;50.762;7.178;2024-03-06T09:59:22;101542.50;;;6.96;92.13
85082;BME280;75424;50.762;7.178;2024-03-06T10:01:55;101536.09;;;7.11;91.19
85082;BME280;75424;50.762;7.178;2024-03-06T10:04:23;101540.41;;;7.16;91.96
85082;BME280;75424;50.762;7.178;2024-03-06T10:06:56;101552.47;;;7.34;91.50
85082;BME280;75424;50.762;7.178;2024-03-06T10:09:23;101550.53;;;7.45;91.13
85082;BME280;75424;50.762;7.178;2024-03-06T10:11:48;101547.69;;;7.55;88.72
85082;BME280;75424;50.762;7.178;2024-03-06T10:14:15;101547.66;;;7.58;87.52
85082;BME280;75424;50.762;7.178;2024-03-06T10:16:57;101551.13;;;7.62;88.53
85082;BME280;75424;50.762;7.178;2024-03-06T10:19:27;101548.50;;;7.62;86.85
85082;BME280;75424;50.762;7.178;2024-03-06T10:21:53;101552.81;;;7.66;87.58
85082;BME280;75424;50.762;7.178;2024-03-06T10:24:26;101546.63;;;7.67;87.53
85082;BME280;75424;50.762;7.178;2024-03-06T10:26:54;101553.41;;;7.82;85.96
85082;BME280;75424;50.762;7.178;2024-03-06T10:29:22;101554.13;;;7.91;83.02
85082;BME280;75424;50.762;7.178;2024-03-06T10:31:52;101553.25;;;7.91;84.20
85082;BME280;75424;50.762;7.178;2024-03-06T10:34:18;101557.66;;;7.92;84.79
85082;BME280;75424;50.762;7.178;2024-03-06T10:36:45;101555.81;;;7.95;82.32
85082;BME280;75424;50.762;7.178;2024-03-06T10:39:13;101546.75;;;8.08;83.05
85082;BME280;75424;50.762;7.178;2024-03-06T10:41:41;101546.75;;;8.08;83.02
85082;BME280;75424;50.762;7.178;2024-03-06T10:44:13;101552.75;;;8.18;83.17
85082;BME280;75424;50.762;7.178;2024-03-06T10:46:43;101544.69;;;8.24;82.62
85082;BME280;75424;50.762;7.178;2024-03-06T10:49:10;101548.00;;;8.35;84.30
85082;BME280;75424;50.762;7.178;2024-03-06T10:51:38;101546.28;;;8.34;82.79
85082;BME280;75424;50.762;7.178;2024-03-06T10:54:08;101547.84;;;8.44;82.52
85082;BME280;75424;50.762;7.178;2024-03-06T10:56:34;101547.72;;;8.48;80.87
85082;BME280;75424;50.762;7.178;2024-03-06T10:59:00;101547.69;;;8.50;81.72
85082;BME280;75424;50.762;7.178;2024-03-06T11:01:29;101546.81;;;8.51;81.00
85082;BME280;75424;50.762;7.178;2024-03-06T11:04:00;101561.72;;;8.56;81.63
85082;BME280;75424;50.762;7.178;2024-03-06T11:06:29;101563.25;;;8.66;82.68
85082;BME280;75424;50.762;7.178;2024-03-06T11:08:54;101556.16;;;8.68;79.67
85082;BME280;75424;50.762;7.178;2024-03-06T11:11:23;101563.25;;;8.66;80.43
85082;BME280;75424;50.762;7.178;2024-03-06T11:13:54;101561.38;;;8.71;80.37
85082;BME280;75424;50.762;7.178;2024-03-06T11:16:27;101561.31;;;8.73;81.04
85082;BME280;75424;50.762;7.178;2024-03-06T11:19:07;101560.28;;;8.80;80.23
85082;BME280;75424;50.762;7.178;2024-03-06T11:21:33;101567.88;;;8.96;79.58
85082;BME280;75424;50.762;7.178;2024-03-06T11:26:36;101553.38;;;9.12;78.71
85082;BME280;75424;50.762;7.178;2024-03-06T11:29:01;101554.09;;;9.20;76.24
85082;BME280;75424;50.762;7.178;2024-03-06T11:31:27;101562.97;;;9.18;77.65
85082;BME280;75424;50.762;7.178;2024-03-06T11:33:53;101558.53;;;9.18;76.42
85082;BME280;75424;50.762;7.178;2024-03-06T11:36:26;101553.97;;;9.25;77.22
85082;BME280;75424;50.762;7.178;2024-03-06T11:39:07;101554.84;;;9.25;73.77
85082;BME280;75424;50.762;7.178;2024-03-06T11:41:49;101552.44;;;9.15;76.08
85082;BME280;75424;50.762;7.178;2024-03-06T11:44:16;101559.81;;;9.02;76.47
85082;BME280;75424;50.762;7.178;2024-03-06T11:47:04;101554.63;;;8.96;75.67
85082;BME280;75424;50.762;7.178;2024-03-06T11:49:32;101554.28;;;9.11;73.71
85082;BME280;75424;50.762;7.178;2024-03-06T11:52:03;101552.09;;;9.30;73.89
85082;BME280;75424;50.762;7.178;2024-03-06T11:54:30;101546.91;;;9.59;75.41
85082;BME280;75424;50.762;7.178;2024-03-06T11:57:01;101552.22;;;9.94;76.86
85082;BME280;75424;50.762;7.178;2024-03-06T11:59:31;101542.03;;;10.11;73.26
85082;BME280;75424;50.762;7.178;2024-03-06T12:01:59;101547.91;;;10.22;74.13
85082;BME280;75424;50.762;7.178;2024-03-06T12:04:33;101547.09;;;10.20;72.53
85082;BME280;75424;50.762;7.178;2024-03-06T12:07:00;101541.59;;;10.26;72.59
85082;BME280;75424;50.762;7.178;2024-03-06T12:09:30;101543.91;;;10.38;75.89
85082;BME280;75424;50.762;7.178;2024-03-06T12:11:56;101540.25;;;10.42;74.75
85082;BME280;75424;50.762;7.178;2024-03-06T12:14:22;101545.75;;;10.36;73.16
85082;BME280;75424;50.762;7.178;2024-03-06T12:16:55;101543.03;;;10.39;70.14
85082;BME280;75424;50.762;7.178;2024-03-06T12:19:28;101542.13;;;10.38;69.63
85082;BME280;75424;50.762;7.178;2024-03-06T12:21:53;101538.34;;;10.47;71.64
85082;BME280;75424;50.762;7.178;2024-03-06T12:24:19;101538.03;;;10.57;69.35
85082;BME280;75424;50.762;7.178;2024-03-06T12:26:46;101541.78;;;10.50;67.06
85082;BME280;75424;50.762;7.178;2024-03-06T12:29:17;101541.91;;;10.46;70.21
85082;BME280;75424;50.762;7.178;2024-03-06T12:31:44;101538.53;;;10.41;68.44
85082;BME280;75424;50.762;7.178;2024-03-06T12:34:13;101537.72;;;10.39;68.83
85082;BME280;75424;50.762;7.178;2024-03-06T12:36:40;101538.44;;;10.44;68.80
85082;BME280;75424;50.762;7.178;2024-03-06T12:39:06;101538.44;;;10.44;67.76
85082;BME280;75424;50.762;7.178;2024-03-06T12:41:39;101533.28;;;10.38;66.34
85082;BME280;75424;50.762;7.178;2024-03-06T12:44:05;101529.63;;;10.42;68.71
85082;BME280;75424;50.762;7.178;2024-03-06T12:46:32;101531.34;;;10.44;67.28
85082;BME280;75424;50.762;7.178;2024-03-06T12:48:57;101532.81;;;10.54;66.65
85082;BME280;75424;50.762;7.178;2024-03-06T12:51:23;101524.63;;;10.62;67.37
85082;BME280;75424;50.762;7.178;2024-03-06T12:53:48;101518.22;;;10.69;67.34
85082;BME280;75424;50.762;7.178;2024-03-06T12:56:13;101528.78;;;10.70;66.91
85082;BME280;75424;50.762;7.178;2024-03-06T12:58:39;101525.91;;;10.78;67.47